Аэропорт: Емельяново. Красноярск

ICAO: UNKL

METAR:
2021-07-28 14:30:00
UNKL 281430Z 20002MPS CAVOK 14/13 Q1010 R29/290055 NOSIG RMK QFE732
METAR:
2021-07-28 10:42:00
TAF UNKL 281042Z 2812/2912 28003G08MPS 6000 -SHRA BKN016CB FM290300 30003G10MPS 9999 SCT030